Latest Coastal Weather Observations for Point Cook

IDV60701

Issued at 7:21 am EST Monday 27 May 2024 (issued every 10 minutes, with the page automatically refreshed every 10 minutes)

About coastal observations | Map of coastal stations | Coastal observations for VIC | Marine services | Other Formats
Station Details ID: 087185 Name: POINT COOK RAAF Lat: -37.93 Lon: 144.76 Height: 3.13 m
Data from the previous 72 hours. | See also: Recent months for locations in Victoria
Date/Time
EST
Wind Sea
Height
m
Swell Vis
km
Cloud Weather Temp
°C
Press
MSL
hPa
Rain since
9am
mm
Dir  Spd
kts
Gust
kts
Height
m
Period
s
Dir
27/07:00am NNE 3 4 - - - - 10 - - 3.9 1025.4 0.0
27/06:30am NE 3 4 - - - - 10 - - 4.1 1025.3 0.0
27/06:00am NNE 3 4 - - - - 10 - - 3.9 1025.1 0.0
27/05:30am NNE 3 4 - - - - 10 - - 4.0 1025.1 0.0
27/05:00am N 3 4 - - - - 10 - - 4.3 1025.0 0.0
27/04:30am N 4 4 - - - - 10 - - 4.4 1024.9 0.0
27/04:00am N 4 4 - - - - 10 - - 4.9 1025.1 0.0
27/03:30am N 3 5 - - - - 10 - - 5.2 1025.0 0.0
27/03:00am N 4 5 - - - - 10 - - 5.8 1025.3 0.0
27/02:30am N 5 5 - - - - 10 - - 5.1 1025.5 0.0
27/02:00am N 3 4 - - - - 10 - - 5.0 1025.4 0.0
27/01:30am CALM 0 2 - - - - 10 - - 5.7 1025.4 0.0
27/01:00am NNW 4 5 - - - - 10 - - 5.9 1025.2 0.0
27/12:30am NW 6 7 - - - - 10 - - 6.4 1025.6 0.0
27/12:00am NW 5 6 - - - - 10 - - 6.0 1025.4 0.0
 
Date/Time
EST
Wind Sea
Height
m
Swell Vis
km
Cloud Weather Temp
°C
Press
MSL
hPa
Rain since
9am
mm
Dir  Spd
kts
Gust
kts
Height
m
Period
s
Dir
26/11:30pm NW 6 7 - - - - 10 - - 7.2 1025.3 0.0
26/11:00pm NW 5 6 - - - - 8 - - 6.8 1025.3 0.0
26/10:30pm N 4 5 - - - - 10 - - 7.6 1025.1 0.0
26/10:00pm NNW 5 6 - - - - 10 - - 7.4 1025.2 0.0
26/09:30pm NW 5 6 - - - - 10 - - 7.3 1025.1 0.0
26/09:00pm N 4 5 - - - - 10 - - 7.8 1024.9 0.0
26/08:30pm NNW 4 5 - - - - 10 - - 8.0 1024.8 0.0
26/08:00pm NNE 5 7 - - - - 10 - - 8.5 1024.7 0.0
26/07:30pm CALM 0 0 - - - - 10 - - 9.7 1024.7 0.0
26/07:00pm SE 5 5 - - - - 10 - - 10.1 1024.8 0.0
26/06:30pm SE 4 4 - - - - 10 - - 10.8 1024.7 0.0
26/06:00pm SE 2 3 - - - - 10 - - 10.5 1024.5 0.0
26/05:30pm SE 3 3 - - - - 10 - - 11.4 1024.3 0.0
26/05:00pm SE 3 3 - - - - 10 - - 12.6 1024.1 0.0
26/04:30pm SE 4 5 - - - - 10 - - 13.2 1024.1 0.0
26/04:00pm ESE 4 5 - - - - 10 - - 13.6 1024.1 0.0
26/03:30pm ESE 4 5 - - - - 10 - - 13.7 1024.0 0.0
26/03:00pm ESE 5 6 - - - - 10 - - 13.4 1024.1 0.0
26/02:30pm SSE 4 5 - - - - 10 - - 13.4 1024.2 0.0
26/02:00pm ESE 3 4 - - - - 10 - - 13.2 1024.5 0.0
26/01:30pm SSE 3 4 - - - - 10 - - 12.9 1024.9 0.0
26/01:00pm SSE 2 3 - - - - 10 - - 12.4 1025.3 0.0
26/12:30pm SSE 3 4 - - - - 10 - - 11.5 1025.5 0.0
26/12:00pm S 4 5 - - - - 10 - - 11.3 1025.7 0.0
26/11:30am SSW 1 2 - - - - 10 - - 10.9 1026.1 0.0
26/11:00am S 2 3 - - - - 10 - - 9.9 1026.5 0.0
26/10:30am SW 1 2 - - - - 10 - - 9.5 1026.8 0.0
26/10:00am CALM 0 1 - - - - 10 - - 8.5 1026.9 0.0
26/09:30am NNW 1 3 - - - - 10 - - 7.8 1026.9 0.0
26/09:00am NNE 2 3 - - - - 10 - - 6.1 1026.9 0.2
26/08:30am NNE 2 2 - - - - 10 - - 5.0 1026.9 0.2
26/08:00am NNE 3 4 - - - - 10 Partly cloudy - 4.2 1026.4 0.2
26/07:30am NNE 2 3 - - - - 9 - - 3.9 1026.2 0.2
26/07:00am N 4 5 - - - - 7 - - 3.4 1026.0 0.2
26/06:30am NNE 2 3 - - - - 6 Partly cloudy - 4.2 1025.8 0.2
26/06:04am NNE 2 3 - - - - 7 - - 4.5 1025.5 0.0
26/06:00am NNE 2 3 - - - - 7 - - 4.6 1025.5 0.0
26/05:30am NNE 3 3 - - - - 4 - - 4.3 1025.4 0.0
26/05:25am NNE 3 3 - - - - 5 - - 4.5 1025.4 0.0
26/05:11am NE 3 3 - - - - 6 - - 4.8 1025.4 0.0
26/05:00am NE 2 3 - - - - 5 - - 5.0 1025.4 0.0
26/04:30am NNE 2 3 - - - - 4 - - 5.1 1025.4 0.0
26/04:00am NNE 2 3 - - - - 4 - - 4.9 1025.5 0.0
26/03:30am NNE 3 3 - - - - 5 - - 5.8 1025.8 0.0
26/03:00am NNE 3 3 - - - - 4 - - 5.7 1026.1 0.0
26/02:30am NNW 2 3 - - - - 3 - - 6.1 1026.3 0.0
26/02:00am CALM 0 2 - - - - 2 - - 6.7 1026.4 0.0
26/01:30am NW 4 4 - - - - 4 - - 6.1 1026.2 0.0
26/01:00am NW 5 6 - - - - 3 - - 6.5 1026.3 0.0
26/12:30am NW 4 5 - - - - 3 - - 6.8 1026.5 0.0
26/12:00am NW 6 7 - - - - 4 - - 7.5 1026.5 0.0
 
Date/Time
EST
Wind Sea
Height
m
Swell Vis
km
Cloud Weather Temp
°C
Press
MSL
hPa
Rain since
9am
mm
Dir  Spd
kts
Gust
kts
Height
m
Period
s
Dir
25/11:30pm NW 5 6 - - - - 4 - - 7.2 1026.6 0.0
25/11:00pm NW 6 7 - - - - 4 - - 7.7 1026.5 0.0
25/10:30pm WNW 5 6 - - - - 4 - - 7.9 1026.5 0.0
25/10:00pm WNW 5 6 - - - - 5 Partly cloudy - 8.4 1026.7 0.0
25/09:30pm WNW 6 7 - - - - 5 Cloudy - 9.3 1026.7 0.0
25/09:00pm WNW 6 7 - - - - 5 Partly cloudy - 9.1 1026.7 0.0
25/08:30pm SSW 1 2 - - - - 3 - - 7.7 1026.4 0.0
25/08:00pm SSW 1 1 - - - - 5 - - 9.5 1026.3 0.0
25/07:37pm CALM 0 0 - - - - 5 - - 9.1 1026.2 0.0
25/07:30pm CALM 0 1 - - - - 8 - - 8.9 1026.2 0.0
25/07:00pm SSW 1 2 - - - - 10 - - 9.3 1026.2 0.0
25/06:30pm S 4 5 - - - - 10 - - 10.7 1026.2 0.0
25/06:00pm S 5 6 - - - - 10 - - 11.0 1026.1 0.0
25/05:30pm S 5 6 - - - - 10 - - 11.2 1026.0 0.0
25/05:00pm SSE 6 6 - - - - 10 - - 12.1 1025.9 0.0
25/04:30pm SSE 5 5 - - - - 10 - - 13.4 1025.6 0.0
25/04:00pm SE 5 6 - - - - 10 - - 13.9 1025.6 0.0
25/03:30pm SE 5 7 - - - - 10 - - 14.0 1025.6 0.0
25/03:00pm SE 6 7 - - - - 10 - - 14.0 1025.7 0.0
25/02:30pm SE 6 7 - - - - 10 - - 14.0 1025.8 0.0
25/02:00pm SE 5 7 - - - - 10 - - 14.1 1025.9 0.0
25/01:30pm SE 6 7 - - - - 10 Partly cloudy - 14.2 1026.1 0.0
25/01:00pm SSE 5 7 - - - - 10 Cloudy - 13.2 1026.5 0.0
25/12:30pm SE 6 7 - - - - 10 Partly cloudy - 13.5 1027.0 0.0
25/12:00pm ESE 3 4 - - - - 10 Partly cloudy - 13.5 1027.4 0.0
25/11:30am E 1 1 - - - - 10 Cloudy - 13.6 1027.9 0.0
25/11:00am W 2 3 - - - - 10 Cloudy - 12.6 1028.2 0.0
25/10:30am W 1 2 - - - - 10 Cloudy - 12.2 1028.3 0.0
25/10:12am SW 2 3 - - - - 10 Partly cloudy - 12.1 1028.3 0.0
25/10:00am SW 3 4 - - - - 10 Partly cloudy - 12.1 1028.2 0.0
25/09:30am W 3 4 - - - - 10 Cloudy - 11.4 1028.2 0.0
25/09:00am WNW 3 4 - - - - 10 Cloudy - 11.0 1028.2 0.0
25/08:30am E 2 2 - - - - 8 Cloudy - 11.1 1028.1 0.0
25/08:00am SE 2 3 - - - - 10 Cloudy - 10.9 1027.7 0.0
25/07:30am CALM 0 0 - - - - 7 Cloudy - 10.8 1027.5 0.0
25/07:00am SSE 2 3 - - - - 8 Cloudy - 10.8 1027.3 0.0
25/06:30am SE 1 2 - - - - 8 Cloudy - 10.7 1027.0 0.0
25/06:00am SE 6 8 - - - - 10 Cloudy - 11.1 1026.9 0.0
25/05:30am SE 7 8 - - - - 10 Partly cloudy - 11.6 1026.8 0.0
25/05:00am SE 2 3 - - - - 10 Partly cloudy - 11.6 1026.8 0.0
25/04:30am ESE 5 6 - - - - 10 Cloudy - 11.5 1026.9 0.0
25/04:00am SE 6 8 - - - - 10 Cloudy - 11.6 1026.8 0.0
25/03:30am E 4 8 - - - - 10 Cloudy - 11.1 1027.1 0.0
25/03:00am NW 3 4 - - - - 10 Cloudy - 9.6 1027.3 0.0
25/02:30am W 4 5 - - - - 10 Partly cloudy - 9.5 1027.3 0.0
25/02:16am W 3 5 - - - - 10 Partly cloudy - 9.4 1027.2 0.0
25/02:00am W 5 5 - - - - 10 - - 9.1 1027.1 0.0
25/01:30am WNW 4 6 - - - - 10 - - 9.2 1027.0 0.0
25/01:00am ESE 1 3 - - - - 10 - - 9.7 1027.2 0.0
25/12:30am WSW 2 2 - - - - 10 Partly cloudy - 10.4 1027.4 0.0
25/12:00am WSW 2 2 - - - - 10 Mostly cloudy - 10.9 1027.6 0.0
 
Date/Time
EST
Wind Sea
Height
m
Swell Vis
km
Cloud Weather Temp
°C
Press
MSL
hPa
Rain since
9am
mm
Dir  Spd
kts
Gust
kts
Height
m
Period
s
Dir
24/11:30pm W 2 3 - - - - 10 Partly cloudy - 10.7 1027.6 0.0
24/11:00pm SSW 2 2 - - - - 10 Partly cloudy - 11.6 1027.8 0.0
24/10:30pm SSE 4 5 - - - - 10 Cloudy - 13.3 1028.0 0.0
24/10:00pm SSE 5 6 - - - - 10 Cloudy - 13.3 1028.2 0.0
24/09:30pm SSE 6 8 - - - - 10 Partly cloudy - 13.4 1028.0 0.0
24/09:00pm SSE 5 7 - - - - 10 Cloudy - 13.3 1028.1 0.0
24/08:30pm S 6 8 - - - - 10 Cloudy - 13.3 1028.1 0.0
24/08:00pm S 6 8 - - - - 10 Cloudy - 13.3 1028.2 0.0
24/07:30pm S 6 8 - - - - 10 Cloudy - 13.1 1028.0 0.0
24/07:00pm S 8 10 - - - - 10 - - 12.4 1027.7 0.0
24/06:30pm SSW 8 10 - - - - 10 Partly cloudy - 12.3 1027.6 0.0
24/06:00pm SSW 8 10 - - - - 10 Cloudy - 13.0 1027.4 0.0
24/05:30pm SSW 9 11 - - - - 10 Partly cloudy - 12.5 1027.3 0.0
24/05:00pm SSW 8 10 - - - - 10 Cloudy - 13.2 1027.3 0.0
24/04:30pm SSW 7 9 - - - - 10 Cloudy - 13.8 1027.4 0.0
24/04:00pm SW 6 8 - - - - 10 Cloudy - 13.8 1027.2 0.0
24/03:30pm SSW 5 6 - - - - 10 Cloudy - 13.8 1027.2 0.0
24/03:00pm S 4 5 - - - - 10 Mostly cloudy - 13.9 1027.2 0.0
24/02:30pm S 4 5 - - - - 10 Partly cloudy - 13.7 1027.1 0.0
24/02:00pm SSW 3 4 - - - - 10 Cloudy - 14.0 1027.4 0.0
24/01:30pm SSW 3 4 - - - - 10 Partly cloudy - 13.8 1027.6 0.0
24/01:00pm SSW 2 3 - - - - 10 Cloudy - 13.6 1027.8 0.0
24/12:30pm W 2 4 - - - - 10 Cloudy - 13.2 1028.2 0.0
24/12:00pm WSW 1 3 - - - - 10 Cloudy - 13.0 1028.3 0.0
24/11:30am SSE 2 4 - - - - 10 Partly cloudy - 12.0 1028.6 0.0
24/11:00am WSW 2 4 - - - - 10 Cloudy - 12.0 1028.8 0.0
24/10:30am WNW 2 3 - - - - 10 Partly cloudy - 11.5 1029.1 0.0
24/10:00am CALM 0 1 - - - - 10 Partly cloudy - 10.7 1028.8 0.0
24/09:56am NNW 1 2 - - - - 10 Partly cloudy - 10.6 1028.8 0.0
24/09:30am NW 3 4 - - - - 10 Cloudy - 9.8 1028.8 0.0
24/09:12am NNW 3 4 - - - - 10 Partly cloudy - 8.9 1028.8 0.0
24/09:00am N 1 2 - - - - 10 Cloudy - 8.4 1028.6 0.0
24/08:30am N 3 4 - - - - 10 Cloudy - 7.3 1028.8 0.0
24/08:00am N 3 4 - - - - 10 Partly cloudy - 6.6 1028.6 0.0
24/07:30am N 2 3 - - - - 10 Cloudy - 6.1 1028.4 0.0

Other formats

Comma delimited format used in spreadsheet applications
http://www.bom.gov.au/fwo/IDV60701/IDV60701.95941.axf

JavaScript Object Notation format (JSON) in row-major order
http://www.bom.gov.au/fwo/IDV60701/IDV60701.95941.json

Data quality

Most of these data are generated automatically and are frequently updated. Quality checks on data are not normally performed. It is possible for incorrect values to appear. Refer to information at About Latest Weather Observations and please check the disclaimer before using these data.